Time;durP1;ratioP1;P1;durP2;ratioP2;P2;SDS_P1;SDS_P2;PMS_P1;PMS_P2;Temp;Humidity;BMP_temperature;BMP_pressure;BME280_temperature;BME280_humidity;BME280_pressure;Samples;Min_cycle;Max_cycle;Signal;HPM_P1;HPM_P2
2023/06/22 00:00:58;;;;;;;12.68;9.13;;;23.10;83.40;;;;;;6158397;23;20020;-86
2023/06/22 00:03:24;;;;;;;13.07;9.55;;;23.10;83.50;;;;;;6158694;23;20028;-87
2023/06/22 00:05:51;;;;;;;11.07;8.20;;;23.10;83.60;;;;;;6183890;23;20029;-86
2023/06/22 00:08:17;;;;;;;13.48;8.90;;;23.00;83.40;;;;;;6185156;23;20009;-87
2023/06/22 00:10:43;;;;;;;12.55;9.20;;;23.00;83.60;;;;;;6158881;23;20028;-86
2023/06/22 00:13:10;;;;;;;12.93;9.23;;;22.90;83.60;;;;;;6157202;23;20027;-86
2023/06/22 00:15:37;;;;;;;14.57;9.23;;;22.90;83.70;;;;;;6158461;23;20045;-86
2023/06/22 00:18:03;;;;;;;12.60;9.05;;;22.90;83.80;;;;;;6184465;23;20386;-86
2023/06/22 00:20:28;;;;;;;12.75;9.43;;;22.80;83.80;;;;;;6184620;23;20017;-86
2023/06/22 00:22:58;;;;;;;14.40;9.57;;;22.80;83.80;;;;;;6158258;23;20028;-86
2023/06/22 00:25:24;;;;;;;12.82;9.70;;;22.80;83.80;;;;;;6158290;23;20049;-86
2023/06/22 00:27:50;;;;;;;12.27;9.45;;;22.80;83.90;;;;;;6156360;23;20036;-85
2023/06/22 00:30:17;;;;;;;11.95;9.60;;;22.70;83.70;;;;;;6185305;23;20009;-86
2023/06/22 00:32:43;;;;;;;11.50;9.35;;;22.60;83.70;;;;;;6158219;23;20028;-85
2023/06/22 00:35:10;;;;;;;12.57;10.20;;;22.60;83.90;;;;;;6157886;23;20080;-86
2023/06/22 00:37:36;;;;;;;14.35;10.27;;;22.50;83.80;;;;;;6184731;23;20021;-86
2023/06/22 00:40:04;;;;;;;13.65;9.73;;;22.50;84.00;;;;;;6184934;23;20013;-86
2023/06/22 00:42:30;;;;;;;12.40;9.73;;;22.40;84.00;;;;;;6157273;23;20055;-85
2023/06/22 00:44:55;;;;;;;16.02;11.00;;;22.40;84.20;;;;;;6184481;23;20013;-86
2023/06/22 00:47:21;;;;;;;13.48;10.15;;;22.30;84.30;;;;;;6158532;23;20100;-86
2023/06/22 00:49:51;;;;;;;12.57;10.38;;;22.30;84.50;;;;;;6183705;23;20009;-85
2023/06/22 00:52:20;;;;;;;13.30;10.18;;;22.20;84.50;;;;;;6158399;23;20441;-86
2023/06/22 00:54:50;;;;;;;14.02;10.20;;;22.20;84.50;;;;;;6157382;23;20463;-85
2023/06/22 00:57:18;;;;;;;12.38;10.38;;;22.10;84.60;;;;;;6186039;23;20059;-86
2023/06/22 00:59:48;;;;;;;13.32;10.27;;;22.10;84.80;;;;;;6185168;23;20467;-87
2023/06/22 01:02:14;;;;;;;13.73;10.68;;;22.00;84.70;;;;;;6157870;23;20067;-86
2023/06/22 01:04:40;;;;;;;14.13;10.80;;;21.90;85.00;;;;;;6185560;23;20092;-85
2023/06/22 01:07:18;;;;;;;13.85;11.10;;;21.80;84.80;;;;;;6158246;23;20075;-85
2023/06/22 01:09:59;;;;;;;12.60;10.52;;;21.80;84.50;;;;;;6184313;23;20017;-85
2023/06/22 01:12:29;;;;;;;12.93;10.45;;;21.70;84.50;;;;;;6158345;23;20477;-86
2023/06/22 01:15:03;;;;;;;13.55;11.00;;;21.70;85.20;;;;;;6184479;23;20552;-85
2023/06/22 01:17:29;;;;;;;14.50;11.57;;;21.60;85.20;;;;;;6157171;23;20013;-84
2023/06/22 01:19:56;;;;;;;14.60;11.95;;;21.60;85.60;;;;;;6184320;23;20381;-86
2023/06/22 01:22:30;;;;;;;14.65;12.48;;;21.50;85.30;;;;;;6158452;23;20017;-86
2023/06/22 01:25:24;;;;;;;16.70;12.30;;;21.50;85.80;;;;;;6157302;23;20025;-86
2023/06/22 01:28:15;;;;;;;15.70;12.23;;;21.50;85.50;;;;;;6158023;23;20021;-87
2023/06/22 01:30:41;;;;;;;15.70;12.15;;;21.50;85.40;;;;;;6184184;23;20484;-86
2023/06/22 01:33:11;;;;;;;14.77;12.40;;;21.40;86.30;;;;;;6157872;23;20017;-86
2023/06/22 01:35:38;;;;;;;15.88;12.38;;;21.40;86.50;;;;;;6185573;23;20017;-85
2023/06/22 01:38:05;;;;;;;15.25;12.13;;;21.40;86.80;;;;;;6158326;23;20059;-86
2023/06/22 01:40:32;;;;;;;16.55;12.68;;;21.40;87.00;;;;;;6160308;23;20052;-85
2023/06/22 01:43:00;;;;;;;17.27;12.82;;;21.40;86.90;;;;;;6186400;23;20043;-86
2023/06/22 01:45:27;;;;;;;15.98;11.80;;;21.40;87.60;;;;;;6185664;23;20024;-87
2023/06/22 01:47:53;;;;;;;16.05;13.15;;;21.30;86.90;;;;;;6186430;23;20016;-86
2023/06/22 01:50:19;;;;;;;15.98;12.25;;;21.30;86.90;;;;;;6159990;23;20458;-85
2023/06/22 01:52:45;;;;;;;16.35;12.35;;;21.30;87.00;;;;;;6185656;23;20013;-85
2023/06/22 01:55:11;;;;;;;16.33;12.68;;;21.20;87.10;;;;;;6159522;23;20023;-85
2023/06/22 01:57:38;;;;;;;15.20;12.50;;;21.30;87.20;;;;;;6160121;23;20129;-85
2023/06/22 02:00:05;;;;;;;17.45;13.18;;;21.20;87.00;;;;;;6173061;23;20080;-84
2023/06/22 02:02:36;;;;;;;16.38;12.25;;;21.20;87.10;;;;;;6186563;23;20368;-84
2023/06/22 02:05:06;;;;;;;16.65;11.90;;;21.10;87.10;;;;;;6158332;23;20064;-85
2023/06/22 02:07:37;;;;;;;15.32;12.52;;;21.00;87.20;;;;;;6159754;23;20021;-84
2023/06/22 02:10:07;;;;;;;13.98;12.13;;;21.00;87.50;;;;;;6186309;23;20017;-86
2023/06/22 02:12:34;;;;;;;16.05;12.02;;;21.00;87.60;;;;;;6158984;23;20509;-85
2023/06/22 02:15:01;;;;;;;15.98;12.60;;;21.00;87.70;;;;;;6186138;23;20460;-86
2023/06/22 02:17:26;;;;;;;17.13;12.60;;;21.00;87.60;;;;;;6186680;23;20013;-86
2023/06/22 02:19:52;;;;;;;15.02;12.00;;;20.90;88.40;;;;;;6158674;23;20401;-85
2023/06/22 02:22:18;;;;;;;15.15;12.32;;;20.90;87.80;;;;;;6160043;23;20394;-85
2023/06/22 02:24:43;;;;;;;13.25;11.52;;;20.90;87.90;;;;;;6185090;23;20009;-86
2023/06/22 02:27:10;;;;;;;14.52;12.23;;;20.80;87.70;;;;;;6184423;23;20394;-84
2023/06/22 02:29:36;;;;;;;14.82;12.23;;;20.80;87.70;;;;;;6186541;23;20013;-85
2023/06/22 02:32:02;;;;;;;15.80;12.50;;;20.80;87.70;;;;;;6185381;23;20096;-86
2023/06/22 02:34:28;;;;;;;15.43;12.10;;;20.70;87.70;;;;;;6184194;23;20044;-85
2023/06/22 02:36:53;;;;;;;15.35;12.27;;;20.80;87.90;;;;;;6185829;23;20017;-84
2023/06/22 02:39:20;;;;;;;14.63;11.70;;;20.70;87.70;;;;;;6159962;23;20433;-84
2023/06/22 02:41:45;;;;;;;13.98;11.90;;;20.70;87.80;;;;;;6185220;23;20017;-85
2023/06/22 02:44:11;;;;;;;14.30;11.00;;;20.60;87.60;;;;;;6186112;23;20020;-86
2023/06/22 02:46:37;;;;;;;14.05;11.98;;;20.60;87.60;;;;;;6159049;23;20500;-85
2023/06/22 02:49:02;;;;;;;14.10;10.95;;;20.60;87.90;;;;;;6184629;23;20013;-85
2023/06/22 02:51:28;;;;;;;13.88;11.52;;;20.50;87.90;;;;;;6159352;23;20416;-84
2023/06/22 02:53:57;;;;;;;13.73;10.77;;;20.50;88.00;;;;;;6158615;23;20024;-84
2023/06/22 02:56:25;;;;;;;13.38;11.00;;;20.40;87.40;;;;;;6184547;23;20013;-84
2023/06/22 02:58:51;;;;;;;14.07;11.35;;;20.40;87.80;;;;;;6159039;23;20025;-84
2023/06/22 03:01:17;;;;;;;11.75;10.13;;;20.30;87.90;;;;;;6185518;23;20055;-84
2023/06/22 03:03:42;;;;;;;12.35;10.63;;;20.30;87.60;;;;;;6159016;23;20104;-85
2023/06/22 03:06:10;;;;;;;12.40;10.40;;;20.20;87.50;;;;;;6185595;23;20554;-85
2023/06/22 03:08:36;;;;;;;11.95;9.93;;;20.10;87.10;;;;;;6158526;23;20013;-84
2023/06/22 03:11:02;;;;;;;11.80;9.43;;;20.10;87.00;;;;;;6185616;23;20073;-84
2023/06/22 03:13:27;;;;;;;12.38;10.00;;;20.00;86.70;;;;;;6185725;23;20017;-85
2023/06/22 03:15:53;;;;;;;12.98;10.15;;;19.90;87.00;;;;;;6184844;23;20017;-84
2023/06/22 03:18:18;;;;;;;11.30;9.32;;;19.90;87.10;;;;;;6185696;23;20021;-84
2023/06/22 03:20:44;;;;;;;11.88;9.32;;;19.80;87.80;;;;;;6185810;23;20013;-84
2023/06/22 03:23:10;;;;;;;12.70;10.23;;;19.70;87.50;;;;;;6184436;23;20019;-84
2023/06/22 03:25:35;;;;;;;10.75;9.15;;;19.80;87.40;;;;;;6159362;23;20017;-84
2023/06/22 03:28:01;;;;;;;11.82;9.50;;;19.70;87.20;;;;;;6158642;23;20402;-84
2023/06/22 03:30:27;;;;;;;12.88;10.05;;;19.60;88.50;;;;;;6184842;23;20092;-83
2023/06/22 03:32:53;;;;;;;11.20;9.75;;;19.60;89.20;;;;;;6185253;23;20334;-84
2023/06/22 03:35:18;;;;;;;11.18;9.65;;;19.60;89.70;;;;;;6185701;23;20047;-84
2023/06/22 03:37:44;;;;;;;12.38;10.63;;;19.60;89.50;;;;;;6184360;23;20021;-85
2023/06/22 03:40:10;;;;;;;11.65;10.02;;;19.60;89.90;;;;;;6185182;23;20099;-84
2023/06/22 03:42:36;;;;;;;12.25;10.93;;;19.60;90.10;;;;;;6184801;23;20013;-84
2023/06/22 03:45:03;;;;;;;12.15;9.90;;;19.60;90.10;;;;;;6184262;23;20318;-84
2023/06/22 03:47:29;;;;;;;13.50;10.73;;;19.60;90.00;;;;;;6185753;23;20019;-83
2023/06/22 03:49:54;;;;;;;11.07;9.93;;;19.60;90.10;;;;;;6158312;23;20091;-85
2023/06/22 03:52:22;;;;;;;12.73;10.55;;;19.60;90.10;;;;;;6184836;23;20063;-84
2023/06/22 03:54:48;;;;;;;11.63;10.23;;;19.50;90.00;;;;;;6185614;23;20009;-84
2023/06/22 03:57:13;;;;;;;12.05;10.40;;;19.50;90.10;;;;;;6185447;23;20026;-84
2023/06/22 03:59:39;;;;;;;11.80;10.50;;;19.50;90.10;;;;;;6157914;23;20021;-83
2023/06/22 04:02:05;;;;;;;12.93;10.80;;;19.50;90.20;;;;;;6158035;23;20021;-83
2023/06/22 04:04:30;;;;;;;12.30;10.45;;;19.50;90.10;;;;;;6185643;23;20017;-83
2023/06/22 04:06:56;;;;;;;14.00;10.68;;;19.50;89.90;;;;;;6183804;23;20027;-81
2023/06/22 04:09:22;;;;;;;11.93;10.55;;;19.50;90.00;;;;;;6185597;23;20341;-82
2023/06/22 04:11:48;;;;;;;13.18;11.20;;;19.40;89.90;;;;;;6183942;23;20017;-82
2023/06/22 04:14:13;;;;;;;12.57;10.73;;;19.50;90.00;;;;;;6185103;23;20078;-82
2023/06/22 04:16:39;;;;;;;12.30;10.85;;;19.40;90.00;;;;;;6158315;23;20021;-83
2023/06/22 04:19:04;;;;;;;12.52;11.18;;;19.40;90.10;;;;;;6183922;23;20017;-85
2023/06/22 04:21:30;;;;;;;12.68;11.07;;;19.40;90.20;;;;;;6185379;23;20017;-85
2023/06/22 04:23:56;;;;;;;12.43;10.85;;;19.40;90.20;;;;;;6185111;23;20489;-86
2023/06/22 04:26:21;;;;;;;13.20;11.80;;;19.30;90.20;;;;;;6157773;23;20025;-85
2023/06/22 04:28:51;;;;;;;14.55;12.07;;;19.30;90.30;;;;;;6185440;23;20024;-85
2023/06/22 04:31:20;;;;;;;13.57;11.77;;;19.30;90.30;;;;;;6185013;23;20021;-86
2023/06/22 04:33:46;;;;;;;14.90;12.80;;;19.30;90.10;;;;;;6184687;23;20020;-83
2023/06/22 04:36:14;;;;;;;13.68;12.27;;;19.30;90.20;;;;;;6185383;23;20009;-85
2023/06/22 04:38:40;;;;;;;14.60;11.40;;;19.30;90.00;;;;;;6158478;23;20024;-86
2023/06/22 04:41:06;;;;;;;14.80;11.90;;;19.20;90.00;;;;;;6157634;23;20021;-84
2023/06/22 04:43:33;;;;;;;13.70;11.68;;;19.20;90.10;;;;;;6159961;23;20017;-84
2023/06/22 04:46:03;;;;;;;14.52;12.05;;;19.20;90.10;;;;;;6186742;23;20021;-84
2023/06/22 04:48:32;;;;;;;14.02;12.55;;;19.20;90.00;;;;;;6158131;23;20024;-84
2023/06/22 04:51:03;;;;;;;16.30;13.57;;;19.10;90.00;;;;;;6185116;23;20067;-84
2023/06/22 04:53:29;;;;;;;15.52;12.85;;;19.20;90.00;;;;;;6184962;23;20024;-83
2023/06/22 04:55:55;;;;;;;15.80;13.43;;;19.10;90.20;;;;;;6183962;23;20096;-86
2023/06/22 04:58:21;;;;;;;15.85;13.63;;;19.10;90.20;;;;;;6184955;23;20044;-82
2023/06/22 05:00:47;;;;;;;15.80;13.68;;;19.10;90.00;;;;;;6185116;23;20009;-85
2023/06/22 05:03:13;;;;;;;15.63;13.07;;;19.10;90.00;;;;;;6184299;23;20021;-81
2023/06/22 05:05:39;;;;;;;15.07;12.27;;;19.10;90.10;;;;;;6185114;23;20511;-81
2023/06/22 05:08:06;;;;;;;14.75;12.73;;;19.10;89.50;;;;;;6183919;23;20057;-80
2023/06/22 05:10:33;;;;;;;14.95;13.05;;;19.00;88.80;;;;;;6159611;23;20020;-80
2023/06/22 05:12:59;;;;;;;15.55;12.70;;;19.00;89.20;;;;;;6186997;23;20092;-80
2023/06/22 05:15:27;;;;;;;16.08;13.23;;;19.00;89.60;;;;;;6186557;23;20045;-80
2023/06/22 05:17:53;;;;;;;15.70;13.52;;;19.00;90.00;;;;;;6160569;23;20103;-81
2023/06/22 05:20:19;;;;;;;14.88;12.50;;;19.00;90.00;;;;;;6187503;23;20373;-81
2023/06/22 05:22:45;;;;;;;16.50;13.60;;;19.00;89.20;;;;;;6186559;23;20446;-81
2023/06/22 05:25:11;;;;;;;16.63;13.80;;;19.00;89.70;;;;;;6160031;23;20025;-81
2023/06/22 05:27:40;;;;;;;16.95;13.23;;;19.00;89.80;;;;;;6186362;23;20418;-81
2023/06/22 05:30:10;;;;;;;15.68;13.38;;;19.00;89.80;;;;;;6185943;23;20044;-81
2023/06/22 05:32:36;;;;;;;14.75;13.15;;;19.00;90.00;;;;;;6187484;23;20055;-82
2023/06/22 05:35:03;;;;;;;18.33;15.23;;;19.00;90.10;;;;;;6186695;23;20017;-81
2023/06/22 05:37:29;;;;;;;17.73;14.45;;;19.00;90.20;;;;;;6159550;23;20084;-81
2023/06/22 05:39:55;;;;;;;15.18;13.43;;;19.00;90.10;;;;;;6160269;23;20021;-82
2023/06/22 05:42:21;;;;;;;14.40;12.25;;;19.00;90.40;;;;;;6160285;23;20455;-81
2023/06/22 05:44:47;;;;;;;15.80;12.75;;;19.10;90.50;;;;;;6186163;23;20105;-81
2023/06/22 05:47:13;;;;;;;18.27;14.45;;;19.10;90.40;;;;;;6186651;23;20017;-81
2023/06/22 05:49:38;;;;;;;15.98;12.68;;;19.20;90.60;;;;;;6187173;23;20021;-81
2023/06/22 05:52:04;;;;;;;21.52;16.40;;;19.20;90.70;;;;;;6185840;23;20013;-82
2023/06/22 05:54:30;;;;;;;16.52;13.82;;;19.20;90.80;;;;;;6160421;23;20095;-82
2023/06/22 05:56:56;;;;;;;17.55;13.00;;;19.30;90.50;;;;;;6186416;23;20428;-81
2023/06/22 05:59:22;;;;;;;15.77;13.38;;;19.20;90.80;;;;;;6186191;23;20017;-81
2023/06/22 06:01:50;;;;;;;15.18;13.25;;;19.30;90.80;;;;;;6186899;23;20013;-82
2023/06/22 06:04:19;;;;;;;17.92;14.52;;;19.40;90.70;;;;;;6186187;23;20100;-82
2023/06/22 06:06:46;;;;;;;19.30;14.32;;;19.40;91.10;;;;;;6186804;23;20021;-82
2023/06/22 06:09:13;;;;;;;14.48;12.52;;;19.50;91.00;;;;;;6186402;23;20009;-82
2023/06/22 06:11:39;;;;;;;15.85;13.10;;;19.50;90.70;;;;;;6185607;23;20311;-82
2023/06/22 06:14:05;;;;;;;16.27;13.00;;;19.50;90.60;;;;;;6186501;23;20063;-82
2023/06/22 06:16:30;;;;;;;14.15;11.55;;;19.60;91.00;;;;;;6186953;23;20048;-83
2023/06/22 06:18:56;;;;;;;16.42;13.00;;;19.60;90.80;;;;;;6159120;23;20442;-82
2023/06/22 06:21:22;;;;;;;16.23;12.43;;;19.70;90.70;;;;;;6159902;23;20041;-83
2023/06/22 06:23:48;;;;;;;14.73;11.38;;;19.70;90.70;;;;;;6185869;23;20104;-82
2023/06/22 06:26:16;;;;;;;14.05;11.88;;;19.70;90.60;;;;;;6185744;23;20052;-83
2023/06/22 06:28:42;;;;;;;14.32;12.43;;;19.70;90.50;;;;;;6186526;23;20020;-83
2023/06/22 06:31:08;;;;;;;15.48;12.60;;;19.80;90.60;;;;;;6186449;23;20032;-83
2023/06/22 06:33:35;;;;;;;15.00;12.18;;;19.90;90.70;;;;;;6185094;23;20013;-82
2023/06/22 06:36:03;;;;;;;16.42;12.38;;;19.90;90.70;;;;;;6157612;23;20075;-83
2023/06/22 06:38:29;;;;;;;16.48;13.52;;;20.00;90.60;;;;;;6159404;23;20492;-83
2023/06/22 06:40:55;;;;;;;14.57;12.35;;;20.10;91.10;;;;;;6184997;23;20159;-83
2023/06/22 06:43:20;;;;;;;16.38;13.63;;;20.10;90.90;;;;;;6186486;23;20355;-84
2023/06/22 06:45:46;;;;;;;17.15;12.77;;;20.20;91.00;;;;;;6186278;23;20504;-83
2023/06/22 06:48:12;;;;;;;19.08;13.82;;;20.30;90.80;;;;;;6184631;23;20307;-83
2023/06/22 06:50:37;;;;;;;15.05;12.52;;;20.40;91.00;;;;;;6159622;23;20025;-84
2023/06/22 06:53:03;;;;;;;15.30;12.20;;;20.40;90.90;;;;;;6159216;23;20390;-83
2023/06/22 06:55:32;;;;;;;13.25;11.20;;;20.50;90.70;;;;;;6185490;23;20010;-86
2023/06/22 06:57:59;;;;;;;14.70;11.05;;;20.50;90.50;;;;;;6185524;23;20103;-87
2023/06/22 07:00:25;;;;;;;13.55;10.60;;;20.60;90.60;;;;;;6158919;23;20013;-85
2023/06/22 07:02:51;;;;;;;12.40;10.30;;;20.70;90.40;;;;;;6158916;23;20021;-86
2023/06/22 07:05:17;;;;;;;12.85;10.45;;;20.80;90.20;;;;;;6184808;23;20340;-85
2023/06/22 07:07:43;;;;;;;13.23;9.95;;;20.80;90.00;;;;;;6158296;23;20053;-86
2023/06/22 07:10:09;;;;;;;11.55;9.23;;;20.90;90.00;;;;;;6185259;23;20498;-84
2023/06/22 07:12:34;;;;;;;12.73;9.10;;;20.90;90.00;;;;;;6186077;23;20017;-84
2023/06/22 07:15:05;;;;;;;11.38;9.57;;;21.00;90.00;;;;;;6158486;23;20038;-84
2023/06/22 07:17:31;;;;;;;10.10;7.68;;;21.10;89.80;;;;;;6158965;23;20021;-87
2023/06/22 07:19:56;;;;;;;11.40;9.10;;;21.10;90.30;;;;;;6185601;23;20449;-86
2023/06/22 07:22:22;;;;;;;11.10;8.70;;;21.20;90.00;;;;;;6185284;23;20076;-84
2023/06/22 07:24:49;;;;;;;11.07;8.40;;;21.20;90.20;;;;;;6159443;23;20087;-83
2023/06/22 07:27:16;;;;;;;12.02;7.88;;;21.30;90.10;;;;;;6186100;23;20101;-83
2023/06/22 07:29:43;;;;;;;10.50;7.70;;;21.30;90.00;;;;;;6185136;23;20056;-83
2023/06/22 07:32:08;;;;;;;11.63;7.40;;;21.30;89.70;;;;;;6185746;23;20025;-83
2023/06/22 07:34:34;;;;;;;9.85;7.75;;;21.40;89.50;;;;;;6185850;23;20013;-83
2023/06/22 07:37:00;;;;;;;10.93;8.00;;;21.40;89.40;;;;;;6157844;23;20315;-84
2023/06/22 07:39:26;;;;;;;10.05;7.57;;;21.50;89.00;;;;;;6185595;23;20021;-84
2023/06/22 07:41:52;;;;;;;10.68;7.50;;;21.50;88.80;;;;;;6158941;23;20013;-83
2023/06/22 07:44:18;;;;;;;8.75;7.00;;;21.60;90.20;;;;;;6184836;23;20092;-83
2023/06/22 07:46:44;;;;;;;10.13;6.93;;;21.60;89.60;;;;;;6185853;23;20044;-83
2023/06/22 07:49:09;;;;;;;10.13;6.90;;;21.70;89.10;;;;;;6185425;23;20044;-84
2023/06/22 07:51:35;;;;;;;9.15;6.78;;;21.80;89.00;;;;;;6158208;23;20033;-83
2023/06/22 07:54:01;;;;;;;9.63;6.78;;;21.80;88.70;;;;;;6158996;23;20433;-83
2023/06/22 07:56:26;;;;;;;9.10;6.40;;;21.90;88.70;;;;;;6185874;23;20017;-82
2023/06/22 07:58:53;;;;;;;8.48;6.25;;;22.00;88.50;;;;;;6184503;23;20013;-84
2023/06/22 08:01:20;;;;;;;8.73;6.00;;;22.10;88.70;;;;;;6159255;23;20104;-83
2023/06/22 08:03:48;;;;;;;8.18;6.00;;;22.20;88.40;;;;;;6184810;23;20009;-83
2023/06/22 08:06:14;;;;;;;9.80;6.20;;;22.30;88.90;;;;;;6158708;23;20021;-81
2023/06/22 08:08:39;;;;;;;11.52;6.10;;;22.30;89.00;;;;;;6159087;23;20016;-81
2023/06/22 08:11:05;;;;;;;11.35;6.25;;;22.50;88.50;;;;;;6157913;23;20025;-82
2023/06/22 08:13:31;;;;;;;8.68;6.05;;;22.50;88.30;;;;;;6185761;23;20013;-82
2023/06/22 08:15:57;;;;;;;8.00;5.50;;;22.60;88.30;;;;;;6185309;23;20385;-83
2023/06/22 08:18:22;;;;;;;10.07;6.90;;;22.70;87.80;;;;;;6185134;23;20024;-81
2023/06/22 08:20:49;;;;;;;8.30;5.28;;;22.80;87.80;;;;;;6185347;23;20017;-83
2023/06/22 08:23:15;;;;;;;7.88;5.47;;;22.90;87.40;;;;;;6185334;23;20013;-80
2023/06/22 08:25:40;;;;;;;8.02;5.78;;;23.00;87.10;;;;;;6184459;23;20020;-83
2023/06/22 08:28:07;;;;;;;9.30;5.40;;;23.00;86.90;;;;;;6185273;23;20009;-82
2023/06/22 08:30:32;;;;;;;8.50;5.45;;;23.10;87.10;;;;;;6185549;23;20017;-80
2023/06/22 08:32:58;;;;;;;8.52;5.35;;;23.20;86.70;;;;;;6184457;23;20013;-81
2023/06/22 08:35:24;;;;;;;8.05;5.70;;;23.30;86.60;;;;;;6158926;23;20017;-82
2023/06/22 08:37:54;;;;;;;8.93;5.80;;;23.30;86.30;;;;;;6158434;23;20021;-82
2023/06/22 08:40:20;;;;;;;7.28;5.38;;;23.50;86.30;;;;;;6158155;23;20017;-83
2023/06/22 08:42:47;;;;;;;8.77;5.72;;;23.50;86.30;;;;;;6158167;23;20017;-82
2023/06/22 08:45:13;;;;;;;9.48;5.53;;;23.60;86.20;;;;;;6157882;23;20441;-82
2023/06/22 08:47:41;;;;;;;8.23;5.32;;;23.70;86.30;;;;;;6157910;23;20346;-81
2023/06/22 08:50:08;;;;;;;8.82;6.25;;;23.80;86.00;;;;;;6185199;23;20013;-81
2023/06/22 08:52:34;;;;;;;9.00;5.82;;;23.90;86.20;;;;;;6158831;23;20013;-82
2023/06/22 08:55:00;;;;;;;9.00;5.28;;;24.00;86.30;;;;;;6183798;23;20389;-83
2023/06/22 08:57:26;;;;;;;8.75;5.97;;;24.10;85.80;;;;;;6185461;23;20096;-83
2023/06/22 08:59:52;;;;;;;7.57;5.05;;;24.10;85.20;;;;;;6185169;23;20013;-83
2023/06/22 09:02:19;;;;;;;9.80;6.22;;;24.20;85.10;;;;;;6157873;23;20076;-82
2023/06/22 09:04:46;;;;;;;8.55;5.88;;;24.30;85.70;;;;;;6185435;23;20044;-83
2023/06/22 09:07:12;;;;;;;7.95;4.82;;;24.40;84.90;;;;;;6157174;23;20028;-84
2023/06/22 09:09:38;;;;;;;8.70;5.35;;;24.50;84.60;;;;;;6158609;23;20073;-82
2023/06/22 09:12:04;;;;;;;9.15;5.93;;;24.60;84.50;;;;;;6158184;23;20357;-84
2023/06/22 09:14:29;;;;;;;7.28;5.53;;;24.60;84.20;;;;;;6157730;23;20453;-83
2023/06/22 09:16:55;;;;;;;10.32;6.03;;;24.70;84.20;;;;;;6184311;23;20017;-82
2023/06/22 09:19:20;;;;;;;10.82;6.05;;;24.70;83.80;;;;;;6185093;23;20097;-83
2023/06/22 09:21:46;;;;;;;10.30;6.30;;;24.80;83.60;;;;;;6157847;23;20024;-82
2023/06/22 09:24:12;;;;;;;7.53;5.15;;;24.90;83.70;;;;;;6158309;23;20031;-81
2023/06/22 09:26:37;;;;;;;7.85;4.68;;;24.90;83.90;;;;;;6158716;23;20017;-81
2023/06/22 09:29:06;;;;;;;8.85;5.60;;;25.00;83.90;;;;;;6157523;23;20013;-85
2023/06/22 09:31:31;;;;;;;8.18;5.28;;;25.10;83.60;;;;;;6184820;23;20048;-82
2023/06/22 09:33:57;;;;;;;8.55;4.97;;;25.20;83.50;;;;;;6184595;23;20025;-82
2023/06/22 09:36:23;;;;;;;7.45;5.10;;;25.30;83.40;;;;;;6184372;23;20020;-82
2023/06/22 09:38:55;;;;;;;7.55;5.22;;;25.30;83.50;;;;;;6184488;23;20024;-83
2023/06/22 09:41:20;;;;;;;8.03;5.30;;;25.40;83.20;;;;;;6184790;23;20089;-84
2023/06/22 09:43:47;;;;;;;8.57;4.97;;;25.50;83.40;;;;;;6184451;23;20017;-84
2023/06/22 09:46:15;;;;;;;8.50;4.95;;;25.50;83.20;;;;;;6184838;23;20021;-85
2023/06/22 09:48:41;;;;;;;6.72;4.63;;;25.60;83.10;;;;;;6184132;23;20382;-85
2023/06/22 09:51:06;;;;;;;6.95;4.78;;;25.70;83.40;;;;;;6157204;23;20109;-86
2023/06/22 09:53:32;;;;;;;10.15;5.93;;;25.70;83.50;;;;;;6158741;23;20009;-85
2023/06/22 09:55:58;;;;;;;10.05;5.50;;;25.80;83.00;;;;;;6185030;23;20017;-85
2023/06/22 09:58:23;;;;;;;9.68;5.88;;;25.90;82.40;;;;;;6159269;23;20512;-84
2023/06/22 10:00:49;;;;;;;7.88;4.65;;;25.90;81.10;;;;;;6186370;23;20421;-83
2023/06/22 10:03:15;;;;;;;6.38;4.60;;;26.00;82.40;;;;;;6186837;23;20052;-83
2023/06/22 10:05:40;;;;;;;7.80;4.82;;;26.00;82.40;;;;;;6185877;23;20028;-82
2023/06/22 10:08:07;;;;;;;9.18;5.72;;;26.10;83.00;;;;;;6186023;23;20549;-83
2023/06/22 10:10:33;;;;;;;6.38;4.70;;;26.20;80.90;;;;;;6159352;23;20013;-82
2023/06/22 10:13:09;;;;;;;8.93;5.65;;;26.20;81.90;;;;;;6159809;23;20021;-83
2023/06/22 10:15:35;;;;;;;9.75;6.20;;;26.30;81.20;;;;;;6186935;23;20381;-84
2023/06/22 10:18:01;;;;;;;8.80;6.00;;;26.40;79.90;;;;;;6185408;23;20027;-83
2023/06/22 10:20:28;;;;;;;8.13;5.55;;;26.40;79.80;;;;;;6160076;23;20345;-82
2023/06/22 10:22:53;;;;;;;8.10;5.07;;;26.40;80.30;;;;;;6159648;23;20044;-83
2023/06/22 10:25:19;;;;;;;7.57;5.10;;;26.50;81.40;;;;;;6185847;23;20017;-84
2023/06/22 10:27:46;;;;;;;11.30;5.15;;;26.60;81.00;;;;;;6164216;23;20040;-82
2023/06/22 10:30:13;;;;;;;7.97;4.47;;;26.70;80.80;;;;;;6178558;23;20017;-83
2023/06/22 10:32:39;;;;;;;7.22;4.57;;;26.70;80.50;;;;;;6184778;23;20441;-83
2023/06/22 10:35:06;;;;;;;5.57;4.32;;;26.80;80.90;;;;;;6159259;23;20024;-82
2023/06/22 10:37:31;;;;;;;7.30;4.50;;;26.80;81.20;;;;;;6159711;23;20020;-83
2023/06/22 10:39:57;;;;;;;7.30;4.70;;;26.90;81.10;;;;;;6193194;23;20032;-83
2023/06/22 10:42:23;;;;;;;8.23;5.03;;;26.90;80.80;;;;;;6185940;23;20021;-82
2023/06/22 10:44:48;;;;;;;7.47;4.05;;;27.00;79.30;;;;;;6159401;23;20095;-82
2023/06/22 10:47:14;;;;;;;5.93;4.28;;;27.10;80.70;;;;;;6185057;23;20025;-82
2023/06/22 10:49:40;;;;;;;8.40;4.50;;;27.20;81.60;;;;;;6186451;23;20017;-84
2023/06/22 10:52:08;;;;;;;7.35;4.20;;;27.20;79.40;;;;;;6186151;23;20048;-84
2023/06/22 10:54:36;;;;;;;6.55;4.03;;;27.30;80.10;;;;;;6185615;23;20017;-83
2023/06/22 10:57:02;;;;;;;5.63;3.80;;;27.40;80.50;;;;;;6186103;23;20092;-82
2023/06/22 10:59:29;;;;;;;7.45;4.60;;;27.50;80.90;;;;;;6185549;23;20441;-85
2023/06/22 11:01:58;;;;;;;6.95;4.13;;;27.50;78.00;;;;;;6158169;23;20473;-83
2023/06/22 11:04:24;;;;;;;7.63;4.22;;;27.60;76.90;;;;;;6186449;23;20342;-82
2023/06/22 11:06:50;;;;;;;6.55;4.15;;;27.60;78.80;;;;;;6184835;23;20020;-83
2023/06/22 11:09:20;;;;;;;6.45;3.70;;;27.70;79.70;;;;;;6159142;23;20017;-83
2023/06/22 11:11:46;;;;;;;5.93;3.53;;;27.70;79.90;;;;;;6186139;23;20027;-83
2023/06/22 11:14:12;;;;;;;6.30;4.03;;;27.80;79.90;;;;;;6157726;23;20438;-91
2023/06/22 11:16:38;;;;;;;6.28;3.50;;;27.90;79.20;;;;;;6159383;23;20032;-82
2023/06/22 11:19:05;;;;;;;8.98;4.07;;;27.90;79.70;;;;;;6185682;23;20013;-84
2023/06/22 11:21:31;;;;;;;5.70;3.53;;;27.90;79.00;;;;;;6158604;23;20032;-84
2023/06/22 11:23:58;;;;;;;5.53;3.45;;;28.00;78.90;;;;;;6185611;23;20030;-82
2023/06/22 11:26:27;;;;;;;6.20;3.45;;;28.10;78.20;;;;;;6185980;23;20017;-82
2023/06/22 11:28:53;;;;;;;7.57;3.70;;;28.10;78.20;;;;;;6182874;23;20013;-89
2023/06/22 11:31:18;;;;;;;4.95;3.17;;;28.10;77.20;;;;;;6185335;23;20020;-82
2023/06/22 11:33:45;;;;;;;5.03;3.20;;;28.20;78.70;;;;;;6159393;23;20449;-82
2023/06/22 11:36:11;;;;;;;5.45;3.53;;;28.20;78.90;;;;;;6157968;23;20032;-85
2023/06/22 11:38:39;;;;;;;5.13;2.80;;;28.20;79.20;;;;;;6185520;23;20013;-85
2023/06/22 11:41:06;;;;;;;5.95;3.20;;;28.20;79.00;;;;;;6159264;23;20040;-85
2023/06/22 11:43:31;;;;;;;6.03;3.55;;;28.30;78.00;;;;;;6158300;23;20023;-85
2023/06/22 11:45:57;;;;;;;5.75;3.58;;;28.40;77.80;;;;;;6185662;23;20017;-87
2023/06/22 11:48:24;;;;;;;4.28;2.70;;;28.40;76.90;;;;;;6159073;23;20025;-85
2023/06/22 11:50:50;;;;;;;5.93;3.25;;;28.40;77.70;;;;;;6184398;23;20024;-84
2023/06/22 11:53:17;;;;;;;6.28;3.20;;;28.40;78.20;;;;;;6185457;23;20017;-84
2023/06/22 11:55:43;;;;;;;6.28;3.17;;;28.50;78.20;;;;;;6185728;23;20021;-83
2023/06/22 11:58:09;;;;;;;7.15;3.38;;;28.50;76.80;;;;;;6157769;23;20021;-83
2023/06/22 12:00:35;;;;;;;6.97;3.55;;;28.50;77.20;;;;;;6185851;23;20338;-86
2023/06/22 12:03:00;;;;;;;4.85;3.05;;;28.50;75.40;;;;;;6183749;23;20096;-84
2023/06/22 12:05:26;;;;;;;6.88;3.53;;;28.50;76.20;;;;;;6185898;23;20013;-84
2023/06/22 12:07:55;;;;;;;5.32;3.10;;;28.50;75.70;;;;;;6158475;23;20028;-84
2023/06/22 12:10:26;;;;;;;6.00;3.50;;;28.50;76.00;;;;;;6158093;23;20029;-84
2023/06/22 12:12:51;;;;;;;5.63;3.08;;;28.50;73.20;;;;;;6157465;23;20045;-84
2023/06/22 12:15:17;;;;;;;6.68;3.38;;;28.50;74.30;;;;;;6158909;23;20023;-84
2023/06/22 12:17:43;;;;;;;6.15;4.03;;;28.50;74.40;;;;;;6158380;23;20349;-84
2023/06/22 12:20:09;;;;;;;6.13;3.20;;;28.60;69.90;;;;;;6185089;23;20103;-83
2023/06/22 12:22:37;;;;;;;5.47;2.90;;;28.60;74.50;;;;;;6185947;23;20023;-83
2023/06/22 12:25:03;;;;;;;4.97;3.03;;;28.60;76.00;;;;;;6157774;23;20017;-83
2023/06/22 12:27:30;;;;;;;7.20;4.18;;;28.60;75.30;;;;;;6185792;23;20023;-83
2023/06/22 12:29:56;;;;;;;4.78;3.13;;;28.60;72.20;;;;;;6185103;23;20333;-82
2023/06/22 12:32:22;;;;;;;6.85;3.75;;;28.60;74.40;;;;;;6184821;23;20092;-83